Time;durP1;ratioP1;P1;durP2;ratioP2;P2;SDS_P1;SDS_P2;PMS_P1;PMS_P2;Temp;Humidity;BMP_temperature;BMP_pressure;BME280_temperature;BME280_humidity;BME280_pressure;Samples;Min_cycle;Max_cycle;Signal;HPM_P1;HPM_P2
2021/11/15 00:01:18;;;;;;;20.63;9.65;;;;;;;;;;6221935;28;20088;-79
2021/11/15 00:04:20;;;;;;;21.38;9.45;;;;;;;;;;6246879;28;20168;-81
2021/11/15 00:07:21;;;;;;;23.02;10.65;;;;;;;;;;6221833;28;20051;-81
2021/11/15 00:10:23;;;;;;;23.10;9.60;;;;;;;;;;6229520;28;20037;-82
2021/11/15 00:13:25;;;;;;;24.23;10.98;;;;;;;;;;6227138;28;20049;-83
2021/11/15 00:16:27;;;;;;;26.50;10.95;;;;;;;;;;6228965;28;20547;-81
2021/11/15 00:19:28;;;;;;;27.67;11.02;;;;;;;;;;6224724;28;20048;-80
2021/11/15 00:22:30;;;;;;;24.75;11.48;;;;;;;;;;6205667;28;20473;-83
2021/11/15 00:25:32;;;;;;;24.73;11.48;;;;;;;;;;6246933;28;20392;-83
2021/11/15 00:28:33;;;;;;;24.13;10.65;;;;;;;;;;6223815;28;20428;-83
2021/11/15 00:31:35;;;;;;;26.67;11.82;;;;;;;;;;6243592;28;20183;-80
2021/11/15 00:34:37;;;;;;;28.08;11.57;;;;;;;;;;6245734;28;20069;-83
2021/11/15 00:37:39;;;;;;;27.55;12.07;;;;;;;;;;6243761;28;20517;-83
2021/11/15 00:40:41;;;;;;;26.40;11.43;;;;;;;;;;6229370;28;20037;-82
2021/11/15 00:43:43;;;;;;;24.88;11.25;;;;;;;;;;6245891;28;20040;-83
2021/11/15 00:46:45;;;;;;;30.80;12.93;;;;;;;;;;6229989;28;20406;-82
2021/11/15 00:49:47;;;;;;;31.92;12.52;;;;;;;;;;6249400;28;20045;-80
2021/11/15 00:52:50;;;;;;;28.20;12.67;;;;;;;;;;6240663;28;20048;-83
2021/11/15 00:55:53;;;;;;;33.20;11.90;;;;;;;;;;6210956;28;20133;-83
2021/11/15 00:58:55;;;;;;;29.48;12.15;;;;;;;;;;6226674;28;20663;-82
2021/11/15 01:01:56;;;;;;;28.17;12.15;;;;;;;;;;6242408;28;20087;-82
2021/11/15 01:04:58;;;;;;;28.77;12.35;;;;;;;;;;6225321;28;20045;-82
2021/11/15 01:08:00;;;;;;;23.20;10.02;;;;;;;;;;6246543;28;20041;-82
2021/11/15 01:11:02;;;;;;;27.02;11.13;;;;;;;;;;6246534;28;20041;-82
2021/11/15 01:14:04;;;;;;;25.70;11.00;;;;;;;;;;6226599;28;20073;-80
2021/11/15 01:17:06;;;;;;;26.88;11.20;;;;;;;;;;6246296;28;20103;-83
2021/11/15 01:20:10;;;;;;;26.73;11.57;;;;;;;;;;6224274;28;20050;-82
2021/11/15 01:23:12;;;;;;;23.25;10.43;;;;;;;;;;6235363;28;20049;-82
2021/11/15 01:26:14;;;;;;;25.23;10.98;;;;;;;;;;6222172;28;20052;-81
2021/11/15 01:29:16;;;;;;;22.65;10.02;;;;;;;;;;6220882;28;20483;-80
2021/11/15 01:32:17;;;;;;;22.80;10.35;;;;;;;;;;6203840;28;20046;-81
2021/11/15 01:35:20;;;;;;;22.90;10.15;;;;;;;;;;6242388;28;20049;-82
2021/11/15 01:38:22;;;;;;;22.98;9.70;;;;;;;;;;6227243;28;20037;-82
2021/11/15 01:41:23;;;;;;;23.08;10.60;;;;;;;;;;6207220;28;20045;-81
2021/11/15 01:44:25;;;;;;;19.92;9.65;;;;;;;;;;6220923;28;20434;-82
2021/11/15 01:47:27;;;;;;;25.60;11.48;;;;;;;;;;6237863;28;20491;-81
2021/11/15 01:50:30;;;;;;;25.75;10.80;;;;;;;;;;6232204;28;20052;-81
2021/11/15 01:53:32;;;;;;;22.85;10.20;;;;;;;;;;6229839;28;20101;-80
2021/11/15 01:56:34;;;;;;;25.15;11.15;;;;;;;;;;6241790;28;20051;-83
2021/11/15 01:59:35;;;;;;;24.05;9.90;;;;;;;;;;6216484;28;20049;-82
2021/11/15 02:02:37;;;;;;;26.42;11.20;;;;;;;;;;6240680;28;20429;-82
2021/11/15 02:05:40;;;;;;;24.55;11.77;;;;;;;;;;6233694;28;20073;-82
2021/11/15 02:08:41;;;;;;;26.95;10.77;;;;;;;;;;6200143;28;20062;-82
2021/11/15 02:11:43;;;;;;;24.52;11.05;;;;;;;;;;6222216;28;20255;-81
2021/11/15 02:14:45;;;;;;;24.50;11.13;;;;;;;;;;6203201;28;20044;-82
2021/11/15 02:17:49;;;;;;;24.40;10.65;;;;;;;;;;6218391;28;20053;-81
2021/11/15 02:21:00;;;;;;;25.05;10.52;;;;;;;;;;6213438;28;20171;-81
2021/11/15 02:24:02;;;;;;;29.58;11.45;;;;;;;;;;6221029;28;20053;-81
2021/11/15 02:27:05;;;;;;;25.02;11.13;;;;;;;;;;6239228;28;20059;-83
2021/11/15 02:30:13;;;;;;;27.75;11.13;;;;;;;;;;6219109;28;20052;-81
2021/11/15 02:33:15;;;;;;;23.10;10.75;;;;;;;;;;6219141;28;20040;-80
2021/11/15 02:36:17;;;;;;;26.58;11.65;;;;;;;;;;6231076;28;20030;-80
2021/11/15 02:39:19;;;;;;;25.50;10.98;;;;;;;;;;6211507;28;20052;-80
2021/11/15 02:42:22;;;;;;;25.13;10.82;;;;;;;;;;6218953;28;20041;-80
2021/11/15 02:45:25;;;;;;;27.35;11.65;;;;;;;;;;6219186;28;20041;-81
2021/11/15 02:48:28;;;;;;;24.88;11.18;;;;;;;;;;6219995;28;20108;-83
2021/11/15 02:51:29;;;;;;;23.60;10.03;;;;;;;;;;6219170;28;20179;-80
2021/11/15 02:54:31;;;;;;;22.23;10.30;;;;;;;;;;6204218;28;20045;-82
2021/11/15 02:57:33;;;;;;;21.45;9.73;;;;;;;;;;6237266;28;20053;-82
2021/11/15 03:00:42;;;;;;;26.70;11.45;;;;;;;;;;6235731;28;20120;-80
2021/11/15 03:03:44;;;;;;;24.30;10.98;;;;;;;;;;6237792;28;20045;-80
2021/11/15 03:06:46;;;;;;;23.60;10.93;;;;;;;;;;6233300;28;20041;-82
2021/11/15 03:09:48;;;;;;;30.17;10.65;;;;;;;;;;6222848;28;20163;-80
2021/11/15 03:12:51;;;;;;;23.43;10.17;;;;;;;;;;6238774;28;20064;-81
2021/11/15 03:15:53;;;;;;;22.63;10.38;;;;;;;;;;6222374;28;20064;-81
2021/11/15 03:18:55;;;;;;;24.27;10.65;;;;;;;;;;6242881;28;20121;-81
2021/11/15 03:21:57;;;;;;;20.00;10.15;;;;;;;;;;6235351;28;20707;-81
2021/11/15 03:24:59;;;;;;;25.23;10.18;;;;;;;;;;6225475;28;20040;-82
2021/11/15 03:28:00;;;;;;;21.45;10.20;;;;;;;;;;6225993;28;20042;-80
2021/11/15 03:31:27;;;;;;;21.50;10.07;;;;;;;;;;6209281;28;20049;-81
2021/11/15 03:34:29;;;;;;;21.77;9.93;;;;;;;;;;6230822;28;20045;-81
2021/11/15 03:37:31;;;;;;;22.50;10.35;;;;;;;;;;6237415;28;20116;-81
2021/11/15 03:40:34;;;;;;;22.13;9.43;;;;;;;;;;6210666;28;20415;-80
2021/11/15 03:43:37;;;;;;;22.47;10.13;;;;;;;;;;6249750;28;20045;-80
2021/11/15 03:46:40;;;;;;;23.08;9.80;;;;;;;;;;6220073;28;20491;-81
2021/11/15 03:49:42;;;;;;;20.85;9.50;;;;;;;;;;6204371;28;20034;-83
2021/11/15 03:52:45;;;;;;;20.77;10.18;;;;;;;;;;6240318;28;20041;-82
2021/11/15 03:55:47;;;;;;;22.38;10.35;;;;;;;;;;6211256;28;20175;-82
2021/11/15 03:58:50;;;;;;;22.80;10.15;;;;;;;;;;6209714;28;20046;-83
2021/11/15 04:01:52;;;;;;;21.33;10.45;;;;;;;;;;6224185;28;20046;-80
2021/11/15 04:05:03;;;;;;;24.45;9.88;;;;;;;;;;6221765;28;20519;-80
2021/11/15 04:08:06;;;;;;;23.23;10.32;;;;;;;;;;6219192;28;20109;-81
2021/11/15 04:11:09;;;;;;;22.63;9.23;;;;;;;;;;6216911;28;20041;-80
2021/11/15 04:14:13;;;;;;;19.52;9.13;;;;;;;;;;6240498;28;20041;-82
2021/11/15 04:17:14;;;;;;;20.70;9.70;;;;;;;;;;6247848;28;20585;-83
2021/11/15 04:20:19;;;;;;;21.98;9.27;;;;;;;;;;6224314;28;20052;-82
2021/11/15 04:23:22;;;;;;;22.83;9.75;;;;;;;;;;6199410;28;20042;-80
2021/11/15 04:26:23;;;;;;;23.98;9.68;;;;;;;;;;6240605;28;20067;-81
2021/11/15 04:29:25;;;;;;;19.25;9.10;;;;;;;;;;6243166;28;20056;-84
2021/11/15 04:32:26;;;;;;;22.15;9.18;;;;;;;;;;6209498;28;20045;-84
2021/11/15 04:35:29;;;;;;;20.60;10.05;;;;;;;;;;6225305;28;20068;-84
2021/11/15 04:38:31;;;;;;;22.10;10.27;;;;;;;;;;6242845;28;20101;-82
2021/11/15 04:41:32;;;;;;;21.67;9.15;;;;;;;;;;6238962;28;20102;-81
2021/11/15 04:44:34;;;;;;;21.88;9.70;;;;;;;;;;6242899;28;20181;-81
2021/11/15 04:47:35;;;;;;;21.70;9.63;;;;;;;;;;6241834;28;20042;-83
2021/11/15 04:50:37;;;;;;;26.65;10.32;;;;;;;;;;6215849;28;20046;-82
2021/11/15 04:53:39;;;;;;;23.45;10.43;;;;;;;;;;6241002;28;20088;-80
2021/11/15 04:56:42;;;;;;;22.13;9.95;;;;;;;;;;6208667;28;20059;-84
2021/11/15 04:59:43;;;;;;;23.35;10.23;;;;;;;;;;6223398;28;20048;-81
2021/11/15 05:02:47;;;;;;;22.38;10.52;;;;;;;;;;6233060;28;20045;-82
2021/11/15 05:05:49;;;;;;;20.45;10.27;;;;;;;;;;6216607;28;20053;-82
2021/11/15 05:08:51;;;;;;;22.73;10.60;;;;;;;;;;6222581;28;20048;-83
2021/11/15 05:11:53;;;;;;;22.08;10.48;;;;;;;;;;6244790;28;20059;-83
2021/11/15 05:14:54;;;;;;;22.45;9.75;;;;;;;;;;6238649;28;20042;-81
2021/11/15 05:17:56;;;;;;;21.17;10.88;;;;;;;;;;6227390;28;20118;-83
2021/11/15 05:20:58;;;;;;;23.23;10.32;;;;;;;;;;6226379;28;20136;-83
2021/11/15 05:24:00;;;;;;;19.92;9.50;;;;;;;;;;6243750;28;20042;-83
2021/11/15 05:27:02;;;;;;;23.65;10.45;;;;;;;;;;6244430;28;20116;-82
2021/11/15 05:30:05;;;;;;;20.30;9.65;;;;;;;;;;6224203;28;20418;-80
2021/11/15 05:33:07;;;;;;;16.20;8.02;;;;;;;;;;6243747;28;20072;-80
2021/11/15 05:36:10;;;;;;;18.25;9.20;;;;;;;;;;6218120;28;20054;-81
2021/11/15 05:39:11;;;;;;;19.45;8.77;;;;;;;;;;6225207;28;20046;-81
2021/11/15 05:42:13;;;;;;;17.95;8.82;;;;;;;;;;6223494;28;20045;-82
2021/11/15 05:45:16;;;;;;;16.65;8.07;;;;;;;;;;6215894;28;20045;-83
2021/11/15 05:48:18;;;;;;;17.95;8.68;;;;;;;;;;6241750;28;20042;-81
2021/11/15 05:51:20;;;;;;;20.30;9.17;;;;;;;;;;6223863;28;20047;-81
2021/11/15 05:54:22;;;;;;;16.48;8.57;;;;;;;;;;6243681;28;20799;-81
2021/11/15 05:57:23;;;;;;;12.93;7.53;;;;;;;;;;6227133;28;20041;-83
2021/11/15 06:00:28;;;;;;;15.80;7.38;;;;;;;;;;6211958;28;20500;-81
2021/11/15 06:03:31;;;;;;;16.67;8.55;;;;;;;;;;6204818;28;20048;-82
2021/11/15 06:06:32;;;;;;;16.83;8.55;;;;;;;;;;6200804;28;20136;-81
2021/11/15 06:09:34;;;;;;;18.63;9.23;;;;;;;;;;6222753;28;20084;-81
2021/11/15 06:12:38;;;;;;;16.67;8.73;;;;;;;;;;6224786;28;20055;-80
2021/11/15 06:15:39;;;;;;;15.82;8.60;;;;;;;;;;6240950;28;20517;-82
2021/11/15 06:18:41;;;;;;;15.93;8.45;;;;;;;;;;6242386;28;20034;-79
2021/11/15 06:21:43;;;;;;;15.50;7.70;;;;;;;;;;6223420;28;20045;-81
2021/11/15 06:24:47;;;;;;;16.80;9.23;;;;;;;;;;6241300;28;20550;-79
2021/11/15 06:27:49;;;;;;;15.38;9.15;;;;;;;;;;6241136;28;20045;-80
2021/11/15 06:30:51;;;;;;;15.73;8.10;;;;;;;;;;6240236;28;20041;-79
2021/11/15 06:33:53;;;;;;;14.73;7.68;;;;;;;;;;6242289;28;20500;-80
2021/11/15 06:36:54;;;;;;;22.05;10.80;;;;;;;;;;6233590;28;20406;-82
2021/11/15 06:39:56;;;;;;;18.05;8.77;;;;;;;;;;6201570;28;20074;-80
2021/11/15 06:42:58;;;;;;;17.50;8.57;;;;;;;;;;6216937;28;20045;-79
2021/11/15 06:45:59;;;;;;;16.77;9.15;;;;;;;;;;6245041;28;20129;-81
2021/11/15 06:49:02;;;;;;;19.67;9.38;;;;;;;;;;6244277;28;20046;-80
2021/11/15 06:52:11;;;;;;;20.75;10.00;;;;;;;;;;6221879;28;20561;-80
2021/11/15 06:55:14;;;;;;;16.63;8.65;;;;;;;;;;6229386;28;20049;-78
2021/11/15 06:58:16;;;;;;;14.02;7.65;;;;;;;;;;6230208;28;20397;-79
2021/11/15 07:01:17;;;;;;;14.93;8.38;;;;;;;;;;6230603;28;20045;-83
2021/11/15 07:04:19;;;;;;;16.77;9.68;;;;;;;;;;6247309;28;20052;-79
2021/11/15 07:07:21;;;;;;;24.48;12.60;;;;;;;;;;6247385;28;20109;-80
2021/11/15 07:10:23;;;;;;;22.23;10.88;;;;;;;;;;6230252;28;20037;-80
2021/11/15 07:13:24;;;;;;;16.25;8.77;;;;;;;;;;6247701;28;20140;-82
2021/11/15 07:16:27;;;;;;;18.30;10.23;;;;;;;;;;6229245;28;20530;-81
2021/11/15 07:19:29;;;;;;;30.65;16.13;;;;;;;;;;6248567;28;20042;-80
2021/11/15 07:22:30;;;;;;;20.30;10.77;;;;;;;;;;6223149;28;20179;-79
2021/11/15 07:25:32;;;;;;;18.80;9.52;;;;;;;;;;6231832;28;20414;-82
2021/11/15 07:28:34;;;;;;;16.55;8.43;;;;;;;;;;6245072;28;20062;-83
2021/11/15 07:31:39;;;;;;;17.33;8.65;;;;;;;;;;6249593;28;20064;-81
2021/11/15 07:34:41;;;;;;;15.43;7.75;;;;;;;;;;6229044;28;20053;-81
2021/11/15 07:37:43;;;;;;;16.38;8.30;;;;;;;;;;6246584;28;20132;-80
2021/11/15 07:40:45;;;;;;;16.38;7.95;;;;;;;;;;6229509;28;20041;-80
2021/11/15 07:43:47;;;;;;;19.23;9.25;;;;;;;;;;6245844;28;20045;-80
2021/11/15 07:46:49;;;;;;;19.42;9.88;;;;;;;;;;6228986;28;20117;-81
2021/11/15 07:49:51;;;;;;;30.58;13.88;;;;;;;;;;6246419;28;20121;-79
2021/11/15 07:52:52;;;;;;;62.53;31.27;;;;;;;;;;6243471;28;20045;-81
2021/11/15 07:55:54;;;;;;;27.73;15.98;;;;;;;;;;6246630;28;20106;-80
2021/11/15 07:58:55;;;;;;;28.38;13.85;;;;;;;;;;6244242;28;20050;-82
2021/11/15 08:01:57;;;;;;;19.33;9.55;;;;;;;;;;6228900;28;20077;-79
2021/11/15 08:04:59;;;;;;;22.30;11.40;;;;;;;;;;6225654;28;20041;-81
2021/11/15 08:08:02;;;;;;;17.63;9.40;;;;;;;;;;6223010;28;20049;-81
2021/11/15 08:11:07;;;;;;;26.40;13.55;;;;;;;;;;6228499;28;20180;-80
2021/11/15 08:14:09;;;;;;;18.35;9.40;;;;;;;;;;6243827;28;21223;-82
2021/11/15 08:17:13;;;;;;;15.88;8.52;;;;;;;;;;6227214;28;20041;-80
2021/11/15 08:20:17;;;;;;;18.60;9.90;;;;;;;;;;6244790;28;20044;-80
2021/11/15 08:23:20;;;;;;;17.90;9.00;;;;;;;;;;6228290;28;20040;-81
2021/11/15 08:26:52;;;;;;;15.93;8.47;;;;;;;;;;6246256;28;20542;-81
2021/11/15 08:29:55;;;;;;;15.85;8.18;;;;;;;;;;6245785;28;20124;-80
2021/11/15 08:32:59;;;;;;;16.48;8.15;;;;;;;;;;6247058;28;20056;-80
2021/11/15 08:36:02;;;;;;;17.95;9.07;;;;;;;;;;6227723;28;20139;-81
2021/11/15 08:39:14;;;;;;;14.70;7.07;;;;;;;;;;6212368;28;20115;-80
2021/11/15 08:42:16;;;;;;;15.88;8.50;;;;;;;;;;6212474;28;20052;-79
2021/11/15 08:45:18;;;;;;;12.52;6.72;;;;;;;;;;6240053;28;20411;-79
2021/11/15 08:48:20;;;;;;;12.63;7.30;;;;;;;;;;6247149;28;20129;-83
2021/11/15 08:51:23;;;;;;;14.38;6.88;;;;;;;;;;6234883;28;20532;-81
2021/11/15 08:54:25;;;;;;;14.40;7.63;;;;;;;;;;6224949;28;20095;-79
2021/11/15 08:57:27;;;;;;;13.52;6.95;;;;;;;;;;6226221;28;20046;-80
2021/11/15 09:00:29;;;;;;;15.02;7.32;;;;;;;;;;6226369;28;20849;-80
2021/11/15 09:03:31;;;;;;;16.67;9.30;;;;;;;;;;6210825;28;20059;-82
2021/11/15 09:06:34;;;;;;;14.57;7.97;;;;;;;;;;6242380;28;20051;-82
2021/11/15 09:09:37;;;;;;;17.30;9.10;;;;;;;;;;6226516;28;20457;-80
2021/11/15 09:12:39;;;;;;;18.77;8.73;;;;;;;;;;6243407;28;20041;-82
2021/11/15 09:15:41;;;;;;;15.80;8.53;;;;;;;;;;6223141;28;20144;-82
2021/11/15 09:18:44;;;;;;;16.90;8.25;;;;;;;;;;6225136;28;20902;-80
2021/11/15 09:21:46;;;;;;;16.25;7.60;;;;;;;;;;6208618;28;20049;-80
2021/11/15 09:24:48;;;;;;;13.90;7.03;;;;;;;;;;6223867;28;20151;-80
2021/11/15 09:27:50;;;;;;;11.45;7.47;;;;;;;;;;6225852;28;20128;-79
2021/11/15 09:30:52;;;;;;;13.85;8.15;;;;;;;;;;6225243;28;20037;-82
2021/11/15 09:33:54;;;;;;;11.93;7.57;;;;;;;;;;6225062;28;20076;-82
2021/11/15 09:36:56;;;;;;;13.95;8.13;;;;;;;;;;6240734;28;20482;-82
2021/11/15 09:39:57;;;;;;;14.43;8.10;;;;;;;;;;6243906;28;20562;-81
2021/11/15 09:43:00;;;;;;;13.90;7.10;;;;;;;;;;6224836;28;20430;-81
2021/11/15 09:46:09;;;;;;;13.93;7.53;;;;;;;;;;6222453;28;20506;-82
2021/11/15 09:49:11;;;;;;;12.27;7.03;;;;;;;;;;6225252;28;20123;-81
2021/11/15 09:52:14;;;;;;;17.33;8.70;;;;;;;;;;6220938;28;20518;-81
2021/11/15 09:55:16;;;;;;;15.57;7.73;;;;;;;;;;6209257;28;20097;-81
2021/11/15 09:58:19;;;;;;;12.53;6.40;;;;;;;;;;6243008;28;20129;-82
2021/11/15 10:01:21;;;;;;;14.35;7.47;;;;;;;;;;6208542;28;20061;-81
2021/11/15 10:04:24;;;;;;;12.55;7.13;;;;;;;;;;6225252;28;20041;-82
2021/11/15 10:07:56;;;;;;;14.65;7.28;;;;;;;;;;6215291;28;20046;-82
2021/11/15 10:10:58;;;;;;;13.30;7.28;;;;;;;;;;6195793;28;20541;-81
2021/11/15 10:14:03;;;;;;;14.07;7.32;;;;;;;;;;6226728;28;20115;-83
2021/11/15 10:17:05;;;;;;;14.57;8.02;;;;;;;;;;6225839;28;20578;-82
2021/11/15 10:20:08;;;;;;;12.68;7.25;;;;;;;;;;6239465;28;20041;-82
2021/11/15 10:23:59;;;;;;;13.70;7.47;;;;;;;;;;6219827;28;20132;-81
2021/11/15 10:27:10;;;;;;;14.65;8.05;;;;;;;;;;6204559;28;20249;-81
2021/11/15 10:30:15;;;;;;;12.02;7.28;;;;;;;;;;6233255;28;20430;-84
2021/11/15 10:33:18;;;;;;;14.32;7.43;;;;;;;;;;6240674;28;20068;-83
2021/11/15 10:36:41;;;;;;;12.73;6.80;;;;;;;;;;6205100;28;20537;-83
2021/11/15 10:39:49;;;;;;;14.68;7.88;;;;;;;;;;6224838;28;20053;-84
2021/11/15 10:42:52;;;;;;;15.05;8.02;;;;;;;;;;6223950;28;20045;-83
2021/11/15 10:45:54;;;;;;;13.88;7.22;;;;;;;;;;6238939;28;20168;-83
2021/11/15 10:48:57;;;;;;;16.42;7.65;;;;;;;;;;6241605;28;20046;-84
2021/11/15 10:52:02;;;;;;;15.88;7.55;;;;;;;;;;6220611;28;20046;-81
2021/11/15 10:55:07;;;;;;;21.10;10.25;;;;;;;;;;6240000;28;20054;-81
2021/11/15 10:58:17;;;;;;;16.85;7.90;;;;;;;;;;6207197;28;20571;-82
2021/11/15 11:01:20;;;;;;;19.13;10.20;;;;;;;;;;6220897;28;20045;-81
2021/11/15 11:04:27;;;;;;;15.52;7.40;;;;;;;;;;6240818;28;20045;-82
2021/11/15 11:07:29;;;;;;;13.32;7.10;;;;;;;;;;6231941;28;20396;-81
2021/11/15 11:10:38;;;;;;;16.60;8.73;;;;;;;;;;6241512;28;20041;-84
2021/11/15 11:14:00;;;;;;;14.18;7.57;;;;;;;;;;6240205;28;20127;-81
2021/11/15 11:17:03;;;;;;;16.95;8.30;;;;;;;;;;6200083;28;20100;-81
2021/11/15 11:21:11;;;;;;;14.13;7.47;;;;;;;;;;6216142;28;20082;-83
2021/11/15 11:23:58;;;;;;;17.52;8.27;;;;;;;;;;6212354;28;20113;-82
2021/11/15 11:27:04;;;;;;;18.60;8.93;;;;;;;;;;6241792;28;20029;-80
2021/11/15 11:30:08;;;;;;;24.50;10.60;;;;;;;;;;6240977;28;20050;-80
2021/11/15 11:33:10;;;;;;;20.92;9.40;;;;;;;;;;6222133;28;20073;-84
2021/11/15 11:36:12;;;;;;;19.17;8.87;;;;;;;;;;6214845;28;20040;-81
2021/11/15 11:39:15;;;;;;;29.27;13.27;;;;;;;;;;6224413;28;20045;-83
2021/11/15 11:42:18;;;;;;;21.23;11.32;;;;;;;;;;6210273;28;20049;-82
2021/11/15 11:45:21;;;;;;;;;;;;;;;;;;6205901;28;20121;-81
2021/11/15 11:48:25;;;;;;;17.57;9.20;;;;;;;;;;6208649;28;19999;-81
2021/11/15 11:51:28;;;;;;;17.35;10.68;;;;;;;;;;6206131;28;20037;-82
2021/11/15 11:54:34;;;;;;;25.95;16.08;;;;;;;;;;6225239;28;20067;-83
2021/11/15 11:57:35;;;;;;;22.73;15.43;;;;;;;;;;6225836;28;20137;-81
2021/11/15 12:00:38;;;;;;;16.48;8.07;;;;;;;;;;6222937;28;20638;-81
2021/11/15 12:03:40;;;;;;;24.45;14.48;;;;;;;;;;6218009;28;20045;-81
2021/11/15 12:06:43;;;;;;;16.50;8.52;;;;;;;;;;6218303;28;20045;-82
2021/11/15 12:09:47;;;;;;;16.73;8.65;;;;;;;;;;6214028;28;20052;-82
2021/11/15 12:12:52;;;;;;;18.85;10.77;;;;;;;;;;6240450;28;20042;-82
2021/11/15 12:15:58;;;;;;;21.52;13.27;;;;;;;;;;6234933;28;20048;-83
2021/11/15 12:19:04;;;;;;;18.05;9.73;;;;;;;;;;6219513;28;20045;-82
2021/11/15 12:22:08;;;;;;;16.63;8.88;;;;;;;;;;6215818;28;20507;-83
2021/11/15 12:25:20;;;;;;;16.77;7.63;;;;;;;;;;6201373;28;20077;-83
2021/11/15 12:28:32;;;;;;;17.52;8.60;;;;;;;;;;6224833;28;20045;-82
2021/11/15 12:31:43;;;;;;;17.00;8.18;;;;;;;;;;6241647;28;20073;-82
2021/11/15 12:34:59;;;;;;;15.23;8.43;;;;;;;;;;6198943;28;20042;-83
2021/11/15 12:38:01;;;;;;;18.35;9.85;;;;;;;;;;6226560;28;20041;-83
2021/11/15 12:41:16;;;;;;;16.50;8.30;;;;;;;;;;6224185;28;20450;-82
2021/11/15 12:44:28;;;;;;;15.57;8.38;;;;;;;;;;6218182;28;20046;-82
2021/11/15 12:47:37;;;;;;;16.98;7.75;;;;;;;;;;6241180;28;20068;-82
2021/11/15 12:50:50;;;;;;;16.20;7.88;;;;;;;;;;6201771;28;20521;-82
2021/11/15 12:53:53;;;;;;;17.27;7.95;;;;;;;;;;6207330;28;20046;-81
2021/11/15 12:56:54;;;;;;;15.30;7.53;;;;;;;;;;6184531;28;20070;-81
2021/11/15 12:59:59;;;;;;;16.73;7.97;;;;;;;;;;6229255;28;20046;-82
2021/11/15 13:03:03;;;;;;;17.00;9.02;;;;;;;;;;6223642;28;20041;-82
2021/11/15 13:06:04;;;;;;;14.23;7.72;;;;;;;;;;6221114;28;20499;-82
2021/11/15 13:09:06;;;;;;;15.93;8.50;;;;;;;;;;6242795;28;20042;-82
2021/11/15 13:12:08;;;;;;;16.60;8.60;;;;;;;;;;6207398;28;20045;-81
2021/11/15 13:15:10;;;;;;;15.43;8.02;;;;;;;;;;6222521;28;20059;-82
2021/11/15 13:18:13;;;;;;;14.13;7.78;;;;;;;;;;6242295;28;20164;-81
2021/11/15 13:21:15;;;;;;;16.13;7.63;;;;;;;;;;6212945;28;20444;-82
2021/11/15 13:24:18;;;;;;;20.48;8.40;;;;;;;;;;6219006;28;20099;-82
2021/11/15 13:27:22;;;;;;;15.48;8.10;;;;;;;;;;6223317;28;20037;-82
2021/11/15 13:30:25;;;;;;;18.35;9.18;;;;;;;;;;6223022;28;20045;-82
2021/11/15 13:33:27;;;;;;;18.90;9.20;;;;;;;;;;6240237;28;20049;-82
2021/11/15 13:36:29;;;;;;;15.88;8.23;;;;;;;;;;6209606;28;20128;-82
2021/11/15 13:39:31;;;;;;;29.08;13.18;;;;;;;;;;6199061;28;20042;-82
2021/11/15 13:42:33;;;;;;;28.60;11.23;;;;;;;;;;6198720;28;20042;-83
2021/11/15 13:45:35;;;;;;;24.92;11.25;;;;;;;;;;6237128;28;20049;-83
2021/11/15 13:48:38;;;;;;;46.92;23.50;;;;;;;;;;6222782;28;20041;-83
2021/11/15 13:51:40;;;;;;;19.75;9.25;;;;;;;;;;6206190;28;20109;-82
2021/11/15 13:54:44;;;;;;;30.15;15.10;;;;;;;;;;6224453;28;20100;-82
2021/11/15 13:57:46;;;;;;;36.20;15.32;;;;;;;;;;6207537;28;20041;-82
2021/11/15 14:00:48;;;;;;;47.70;21.17;;;;;;;;;;6222817;28;20061;-84
2021/11/15 14:03:50;;;;;;;27.73;12.50;;;;;;;;;;6225566;28;20042;-82
2021/11/15 14:06:51;;;;;;;31.80;14.45;;;;;;;;;;6240867;28;20400;-85
2021/11/15 14:09:53;;;;;;;20.40;9.40;;;;;;;;;;6241706;28;20038;-82
2021/11/15 14:12:55;;;;;;;19.70;9.23;;;;;;;;;;6222506;28;20029;-81
2021/11/15 14:15:58;;;;;;;23.38;11.35;;;;;;;;;;6233335;28;20446;-82
2021/11/15 14:18:59;;;;;;;20.00;9.45;;;;;;;;;;6223859;28;20045;-83
2021/11/15 14:22:21;;;;;;;19.88;10.27;;;;;;;;;;6232211;28;20231;-82
2021/11/15 14:25:23;;;;;;;18.65;8.93;;;;;;;;;;6221657;28;20052;-84
2021/11/15 14:28:38;;;;;;;18.85;8.80;;;;;;;;;;6239632;28;20045;-84
2021/11/15 14:31:39;;;;;;;18.02;9.50;;;;;;;;;;6219336;28;20042;-82
2021/11/15 14:34:48;;;;;;;16.02;8.50;;;;;;;;;;6237519;28;20057;-82
2021/11/15 14:37:50;;;;;;;17.70;8.45;;;;;;;;;;6214087;28;20060;-82
2021/11/15 14:40:52;;;;;;;16.88;8.73;;;;;;;;;;6222580;28;20045;-82
2021/11/15 14:43:53;;;;;;;20.52;9.52;;;;;;;;;;6213565;28;20056;-82
2021/11/15 14:46:55;;;;;;;21.13;9.38;;;;;;;;;;6234025;28;20559;-79
2021/11/15 14:49:57;;;;;;;18.95;8.98;;;;;;;;;;6205208;28;20045;-81
2021/11/15 14:52:59;;;;;;;20.40;9.85;;;;;;;;;;6216035;28;20037;-81
2021/11/15 14:56:02;;;;;;;18.08;9.55;;;;;;;;;;6230043;28;20038;-82
2021/11/15 14:59:05;;;;;;;;;;;;;;;;;;6210707;28;20064;-83
2021/11/15 15:02:07;;;;;;;37.17;19.58;;;;;;;;;;6239795;28;19980;-82
2021/11/15 15:05:09;;;;;;;32.60;19.17;;;;;;;;;;6221451;28;20045;-83
2021/11/15 15:08:11;;;;;;;20.42;10.65;;;;;;;;;;6240365;28;20132;-82
2021/11/15 15:11:13;;;;;;;26.55;13.90;;;;;;;;;;6223460;28;20101;-83
2021/11/15 15:14:15;;;;;;;25.67;12.88;;;;;;;;;;6243197;28;20474;-81
2021/11/15 15:17:17;;;;;;;21.17;9.55;;;;;;;;;;6211492;28;20042;-82
2021/11/15 15:20:21;;;;;;;19.58;9.85;;;;;;;;;;6241439;28;20061;-80
2021/11/15 15:23:24;;;;;;;22.50;10.23;;;;;;;;;;6223097;28;20044;-82
2021/11/15 15:26:27;;;;;;;23.33;11.05;;;;;;;;;;6246117;28;20053;-80
2021/11/15 15:29:29;;;;;;;27.38;12.95;;;;;;;;;;6225525;28;20098;-84
2021/11/15 15:32:31;;;;;;;21.58;10.52;;;;;;;;;;6208086;28;20406;-83
2021/11/15 15:35:33;;;;;;;21.10;10.38;;;;;;;;;;6242857;28;20117;-81
2021/11/15 15:38:35;;;;;;;23.00;11.20;;;;;;;;;;6225720;28;20037;-82
2021/11/15 15:41:37;;;;;;;25.52;10.50;;;;;;;;;;6227442;28;20784;-80
2021/11/15 15:44:38;;;;;;;21.52;10.30;;;;;;;;;;6222512;28;20503;-82
2021/11/15 15:47:42;;;;;;;30.50;14.60;;;;;;;;;;6222941;28;20122;-81
2021/11/15 15:50:48;;;;;;;26.25;11.65;;;;;;;;;;6204974;28;20041;-83
2021/11/15 15:53:53;;;;;;;24.30;11.52;;;;;;;;;;6222430;28;20041;-81
2021/11/15 15:56:54;;;;;;;23.80;11.48;;;;;;;;;;6205836;28;20042;-82
2021/11/15 15:59:56;;;;;;;25.05;11.20;;;;;;;;;;6238287;28;20055;-84
2021/11/15 16:02:58;;;;;;;27.10;11.45;;;;;;;;;;6234711;28;20045;-82
2021/11/15 16:06:15;;;;;;;26.60;11.35;;;;;;;;;;6215958;28;20041;-81
2021/11/15 16:12:42;;;;;;;23.50;10.53;;;;;;;;;;6214659;28;20129;-82
2021/11/15 16:19:04;;;;;;;28.13;11.23;;;;;;;;;;6215773;28;20853;-81
2021/11/15 16:22:07;;;;;;;24.83;10.75;;;;;;;;;;6207091;28;20183;-81
2021/11/15 16:25:10;;;;;;;23.50;10.13;;;;;;;;;;6212981;28;20041;-81
2021/11/15 16:28:12;;;;;;;26.42;12.38;;;;;;;;;;6232265;28;20531;-81
2021/11/15 16:31:13;;;;;;;26.75;11.55;;;;;;;;;;6207177;28;20045;-80
2021/11/15 16:34:16;;;;;;;23.75;10.50;;;;;;;;;;6219208;28;20047;-80
2021/11/15 16:37:18;;;;;;;31.05;11.63;;;;;;;;;;6206898;28;20132;-81
2021/11/15 16:40:20;;;;;;;27.63;11.15;;;;;;;;;;6242492;28;20041;-82
2021/11/15 16:43:22;;;;;;;25.35;11.40;;;;;;;;;;6221659;28;20060;-81
2021/11/15 16:46:24;;;;;;;27.38;11.02;;;;;;;;;;6239403;28;20045;-81
2021/11/15 16:49:26;;;;;;;28.00;11.43;;;;;;;;;;6239818;28;20049;-81
2021/11/15 16:52:27;;;;;;;28.17;11.80;;;;;;;;;;6232495;28;20510;-81
2021/11/15 16:55:31;;;;;;;28.88;11.77;;;;;;;;;;6220685;28;20102;-81
2021/11/15 16:58:32;;;;;;;27.73;11.15;;;;;;;;;;6203180;28;20041;-81
2021/11/15 17:01:34;;;;;;;28.52;12.30;;;;;;;;;;6221099;28;20045;-81
2021/11/15 17:04:37;;;;;;;31.75;12.32;;;;;;;;;;6221173;28;20045;-81
2021/11/15 17:07:39;;;;;;;27.10;12.65;;;;;;;;;;6217494;28;20045;-79
2021/11/15 17:10:50;;;;;;;28.25;12.82;;;;;;;;;;6236343;28;20053;-79
2021/11/15 17:13:54;;;;;;;29.42;12.48;;;;;;;;;;6200998;28;20052;-81
2021/11/15 17:16:55;;;;;;;;;;;;;;;;;;6235654;28;20499;-81
2021/11/15 17:20:00;;;;;;;33.83;13.40;;;;;;;;;;6200885;28;20614;-80
2021/11/15 17:23:02;;;;;;;36.85;14.13;;;;;;;;;;6194490;28;20046;-81
2021/11/15 17:26:04;;;;;;;33.40;13.35;;;;;;;;;;6222200;28;20072;-81
2021/11/15 17:29:06;;;;;;;32.95;13.27;;;;;;;;;;6219777;28;20140;-80
2021/11/15 17:32:08;;;;;;;33.90;13.45;;;;;;;;;;6235553;28;20056;-81
2021/11/15 17:35:11;;;;;;;40.72;14.57;;;;;;;;;;6238932;28;20054;-82
2021/11/15 17:38:16;;;;;;;28.90;12.70;;;;;;;;;;6241042;28;20043;-81
2021/11/15 17:41:20;;;;;;;29.33;12.82;;;;;;;;;;6222390;28;20138;-81
2021/11/15 17:44:21;;;;;;;32.33;13.40;;;;;;;;;;6220714;28;20045;-83
2021/11/15 17:47:24;;;;;;;30.70;12.32;;;;;;;;;;6198375;28;20176;-82
2021/11/15 17:50:29;;;;;;;33.85;15.10;;;;;;;;;;6215091;28;20042;-82
2021/11/15 17:54:09;;;;;;;29.27;11.90;;;;;;;;;;6197489;28;20056;-82
2021/11/15 17:57:01;;;;;;;30.10;12.30;;;;;;;;;;6210310;28;20109;-81
2021/11/15 18:00:04;;;;;;;30.63;12.18;;;;;;;;;;6218595;28;20053;-80
2021/11/15 18:03:08;;;;;;;30.70;12.80;;;;;;;;;;6238679;28;20041;-82